Scottsbluff, NE

8:37 AM MST on February 13, 2016 (GMT -0700)
Heilig | | Change Station
CLOSE
Current Station
Airport
Location: Scottsbluff,
Elevation: 3957 ft
Nearby Weather Stations
Active Advisory: Special Statement

Elev 3957 ft 41.87 °N, 103.60 °W | Updated 44 minutes ago

Clear
Clear
32 °F
Feels Like 25 °F
N
8
Wind Variable Wind from ESE

Today
High -- | Low -- °F
--% Chance of Precip.
Yesterday
High -- | Low -- °F
Precip. -- in
Pressure 30.13 in
Visibility 7.0 miles
Clouds Clear
Windchill 25 °F
Dew Point 30 °F
Humidity 92%
Rainfall 0.00 in
Snow Depth Not available.
6:53 AM 5:24 PM
Waxing Crescent, 31% visible
METAR KBFF 131453Z AUTO 11007KT 7SM CLR 00/M01 A3006 RMK AO2 SLP201 T00001011 56010
Pressure 30.13 in
Visibility 7.0 miles
Clouds Clear
Windchill 25 °F
Dew Point 30 °F
Humidity 92%
Rainfall 0.00 in
Snow Depth Not available.
6:53 AM 5:24 PM
Waxing Crescent, 31% visible
METAR KBFF 131453Z AUTO 11007KT 7SM CLR 00/M01 A3006 RMK AO2 SLP201 T00001011 56010

10-Day Weather Forecast

Almanac

Astronomy

Feb. 13, 2016 Rise Set
Actual Time
Civil Twilight
Nautical Twilight
Astronomical Twilight
Moon
Length of Visible Light
Length of Day
Tomorrow will be .
, % of the Moon is Illuminated

Today's Extremes

State Highs State Lows

Community

WunderPhotos

Upload Photos

1,892,585 photos uploaded!

WunderBlog® & News

Nearby

Air Quality

  Air Quality AQ Index Pollutant
Not available.

Snow Depth

Station Depth Elevation

Earthquake Activity

City Distance Mag. Time & Date
Minimum magnitude displayed is 2.5.

Coastal Water Temperatures

Place Temperature

Stations

Nearby Weather Stations

Station Location Temp. Windchill Dew Point Humidity Wind Precip. Elev Updated Type
                   

Watches & Warnings

Special Statement
Issued: 6:44 AM MST Feb. 13, 2016 – National Weather Service

... Areas of dense fog this morning...

When you are driving this morning... please watch for areas of
dense fog... with visibilities at or below one quarter of a mile.

When you encounter dense fog... please slow down... use your low
beam headlights and allow for extra travel time to safely reach
your destination.


Rubin


644 am MST Sat Feb 13 2016

... Areas of dense fog this morning...

When you are driving this morning... please watch for areas of
dense fog... with visibilities at or below one quarter of a mile.

When you encounter dense fog... please slow down... use your low
beam headlights and allow for extra travel time to safely reach
your destination.


Rubin